Latest Coastal Weather Observations for Gove Airport

IDD60701

Issued at 9:55 am CST Saturday 2 August 2014 (issued every 10 minutes, with the page automatically refreshed every 10 minutes)

About coastal observations | Map of coastal stations | Coastal observations for NT | Marine services | Other Formats
Station Details ID: 014508 Name: GOVE AIRPORT Lat: -12.27 Lon: 136.82 Height: 51.6 m
Data from the previous 72 hours. | See also: Recent months at Gove Airport
Date/Time
CST
Temp

°C
Wind Pressure Rain
since 9am
mm
Weather Cloud Vis
km
Sea
Height
m
Swell
Dir
 
Speed
knots
Gust
knots
hPa Trend Height
m
Period
s
Dir
02/09:30am 27.0 ESE 12 17 1016.8 - 0.0 - Mostly clear 10 - - - -
02/09:00am 26.8 ESE 13 16 1016.4 F 0.0 Fine Partly cloudy 22 - - - -
02/08:30am 25.5 E 10 13 1016.4 - 0.0 - Partly cloudy 10 - - - -
02/08:00am 23.8 SE 4 6 1016.1 - 0.0 - Mostly clear 10 - - - -
02/07:30am 21.6 ESE 4 4 1015.6 - 0.0 - Mostly clear 10 - - - -
02/07:00am 20.5 ESE 4 5 1015.3 - 0.0 - Mostly clear 10 - - - -
02/06:30am 20.1 SE 4 4 1015.0 - 0.0 - Mostly clear 10 - - - -
02/06:00am 19.8 SE 4 4 1014.6 R 0.0 Fine Partly cloudy 16 - - - -
02/05:30am 20.1 SE 3 4 1014.5 - 0.0 - - 10 - - - -
02/05:00am 19.7 N 3 3 1014.3 - 0.0 - - 10 - - - -
02/04:30am 20.0 N 3 4 1013.9 - 0.0 - - 10 - - - -
02/04:00am 20.4 N 2 3 1014.0 - 0.0 - - 10 - - - -
02/03:30am 21.0 NNE 3 4 1014.1 - 0.0 - - 10 - - - -
02/03:00am 21.6 SSE 6 7 1013.8 - 0.0 - - 10 - - - -
02/02:30am 21.7 ESE 6 7 1014.4 - 0.0 - - 10 - - - -
02/02:00am 22.1 SE 5 7 1014.5 - 0.0 - - 10 - - - -
02/01:30am 22.5 ESE 6 8 1014.7 - 0.0 - - 10 - - - -
02/01:00am 23.1 SE 7 10 1014.8 - 0.0 - - 10 - - - -
02/12:30am 23.2 SE 7 9 1015.1 - 0.0 - Partly cloudy 10 - - - -
02/12:00am 23.5 SE 8 11 1015.0 - 0.0 - Mostly clear 10 - - - -
 
Date/Time
CST
Temp

°C
Wind Pressure Rain
since 9am
mm
Weather Cloud Vis
km
Sea
Height
m
Swell
Dir
 
Speed
knots
Gust
knots
hPa Trend Height
m
Period
s
Dir
01/11:30pm 23.3 ESE 7 10 1015.2 - 0.0 - Partly cloudy 10 - - - -
01/11:00pm 23.5 SE 6 8 1015.2 - 0.0 - Partly cloudy 10 - - - -
01/10:30pm 23.5 ESE 7 9 1015.2 - 0.0 - Partly cloudy 10 - - - -
01/10:00pm 23.5 ESE 7 9 1015.2 - 0.0 - Partly cloudy 10 - - - -
01/09:30pm 23.7 E 7 9 1015.2 - 0.0 - Partly cloudy 10 - - - -
01/09:00pm 23.6 ESE 7 9 1015.2 - 0.0 - - 10 - - - -
01/08:30pm 24.0 SE 8 11 1015.2 - 0.0 - - 10 - - - -
01/08:00pm 24.4 SE 8 13 1014.9 - 0.0 - - 10 - - - -
01/07:30pm 24.3 ESE 8 10 1014.6 - 0.0 - - 10 - - - -
01/07:00pm 24.8 ESE 9 13 1014.3 - 0.0 - Partly cloudy 10 - - - -
01/06:30pm 24.7 SSE 8 11 1013.8 - 0.0 - Partly cloudy 10 - - - -
01/06:00pm 24.8 SE 7 10 1013.2 - 0.0 - Partly cloudy 10 - - - -
01/05:30pm 25.5 SE 10 13 1013.3 - 0.0 - Partly cloudy 10 - - - -
01/05:00pm 25.9 SE 11 14 1013.1 - 0.0 - Partly cloudy 10 - - - -
01/04:30pm 27.0 ESE 10 13 1012.8 - 0.0 - Partly cloudy 10 - - - -
01/04:00pm 27.0 ESE 10 15 1012.8 - 0.0 - Mostly clear 10 - - - -
01/03:30pm 27.9 ESE 10 14 1012.7 - 0.0 - Partly cloudy 10 - - - -
01/03:00pm 27.6 ESE 11 14 1012.7 F 0.0 Fine Partly cloudy 25 - - - -
01/02:30pm 28.0 ESE 11 16 1013.4 - 0.0 - Partly cloudy 10 - - - -
01/02:00pm 27.5 ESE 10 16 1013.9 - 0.0 - Mostly clear 10 - - - -
01/01:30pm 28.4 E 9 14 1014.3 - 0.0 - Partly cloudy 10 - - - -
01/01:00pm 27.9 ESE 10 14 1014.7 - 0.0 - Partly cloudy 10 - - - -
01/12:30pm 27.8 E 9 14 1014.9 - 0.0 - Partly cloudy 10 - - - -
01/12:00pm 28.0 E 7 13 1015.1 F 0.0 Fine Partly cloudy 26 - - - -
01/11:30am 28.2 E 8 12 1015.8 - 0.0 - Partly cloudy 10 - - - -
01/11:00am 27.5 E 8 12 1016.3 - 0.0 - Partly cloudy 10 - - - -
01/10:30am 27.6 E 10 12 1016.4 - 0.0 - Partly cloudy 10 - - - -
01/10:00am 27.2 E 8 11 1016.5 - 0.0 - Partly cloudy 10 - - - -
01/09:30am 26.6 E 8 10 1016.6 - 0.0 - Mostly clear 10 - - - -
01/09:00am 26.1 E 6 8 1016.1 R 0.0 Fine Partly cloudy 23 - - - -
01/08:30am 24.8 NE 5 7 1016.1 - 0.0 - Mostly clear 10 - - - -
01/08:00am 23.4 SE 2 4 1015.7 - 0.0 - Mostly clear 10 - - - -
01/07:30am 19.6 CALM 0 0 1015.3 - 0.0 - Mostly clear 10 - - - -
01/07:00am 18.0 CALM 0 0 1015.0 - 0.0 Fog patches Mostly clear 2 - - - -
01/06:30am 18.1 CALM 0 0 1014.8 - 0.0 Fog patches Mostly clear 10 - - - -
01/06:00am 18.2 CALM 0 0 1014.5 R 0.0 Haze Mostly clear 12 - - - -
01/05:30am 18.1 CALM 0 0 1014.2 - 0.0 - - 10 - - - -
01/05:00am 17.9 CALM 0 0 1014.1 - 0.0 - - 10 - - - -
01/04:30am 18.0 CALM 0 0 1014.0 - 0.0 - - 10 - - - -
01/04:00am 18.0 CALM 0 2 1013.8 - 0.0 - - 10 - - - -
01/03:30am 18.2 SE 3 4 1013.8 - 0.0 - - 10 - - - -
01/03:00am 18.3 CALM 0 0 1013.7 - 0.0 - - 10 - - - -
01/02:30am 18.4 CALM 0 0 1014.3 - 0.0 - - 10 - - - -
01/02:00am 18.5 SSE 2 3 1014.5 - 0.0 - - 10 - - - -
01/01:30am 18.9 N 3 3 1014.7 - 0.0 - - 10 - - - -
01/01:00am 19.7 N 3 4 1014.8 - 0.0 - - 10 - - - -
01/12:30am 20.0 N 3 4 1015.2 - 0.0 - - 10 - - - -
01/12:00am 20.3 NE 3 4 1015.0 - 0.0 - - 10 - - - -
 
Date/Time
CST
Temp

°C
Wind Pressure Rain
since 9am
mm
Weather Cloud Vis
km
Sea
Height
m
Swell
Dir
 
Speed
knots
Gust
knots
hPa Trend Height
m
Period
s
Dir
31/11:30pm 20.6 N 4 5 1015.3 - 0.0 - - 10 - - - -
31/11:00pm 20.9 ESE 5 5 1015.5 - 0.0 - - 10 - - - -
31/10:30pm 20.8 N 4 5 1015.6 - 0.0 - - 10 - - - -
31/10:00pm 21.2 SE 3 4 1015.6 - 0.0 - - 10 - - - -
31/09:30pm 21.7 SE 3 3 1015.5 - 0.0 - - 10 - - - -
31/09:00pm 22.4 SE 4 5 1015.2 - 0.0 - Mostly clear 10 - - - -
31/08:30pm 23.8 ESE 6 7 1015.2 - 0.0 - Partly cloudy 10 - - - -
31/08:00pm 24.3 ESE 7 9 1014.8 - 0.0 - Partly cloudy 10 - - - -
31/07:30pm 24.4 ESE 7 9 1014.4 - 0.0 - Partly cloudy 10 - - - -
31/07:00pm 24.4 ESE 7 8 1013.9 - 0.0 - Partly cloudy 10 - - - -
31/06:30pm 25.0 ESE 8 11 1013.7 - 0.0 - Partly cloudy 10 - - - -
31/06:00pm 25.0 ESE 8 10 1013.4 - 0.0 - Partly cloudy 10 - - - -
31/05:30pm 25.3 ESE 9 12 1013.6 - 0.0 - Mostly clear 10 - - - -
31/05:00pm 26.4 E 10 13 1013.4 - 0.0 - Partly cloudy 10 - - - -
31/04:30pm 26.1 ESE 11 13 1013.3 - 0.0 - Mostly clear 10 - - - -
31/04:00pm 26.6 E 8 13 1013.1 - 0.0 - Partly cloudy 10 - - - -
31/03:30pm 27.7 E 10 15 1012.9 - 0.0 - Partly cloudy 10 - - - -
31/03:00pm 26.8 E 11 15 1012.9 F 0.0 Fine Partly cloudy 25 - - - -
31/02:30pm 27.1 ESE 12 16 1013.6 - 0.0 - Partly cloudy 10 - - - -
31/02:00pm 26.6 ESE 12 16 1014.1 - 0.0 - Partly cloudy 10 - - - -
31/01:30pm 27.1 E 9 12 1014.4 - 0.0 - Partly cloudy 10 - - - -
31/01:00pm 27.1 E 10 14 1014.8 - 0.0 - Partly cloudy 10 - - - -
31/12:30pm 28.0 E 9 13 1015.1 - 0.0 - Partly cloudy 10 - - - -
31/12:00pm 27.2 ESE 12 17 1015.2 F 0.0 Fine Partly cloudy 23 - - - -
31/11:30am 27.6 E 11 16 1015.5 - 0.0 - Partly cloudy 10 - - - -
31/11:00am 26.8 ESE 9 12 1015.9 - 0.0 - Partly cloudy 10 - - - -
31/10:30am 26.6 ESE 10 14 1016.2 - 0.0 - Partly cloudy 10 - - - -
31/10:00am 27.0 ENE 9 11 1016.3 - 0.0 - Partly cloudy 10 - - - -
31/09:30am 25.6 ESE 11 12 1016.3 - 0.0 - Partly cloudy 10 - - - -
31/09:00am 25.6 E 9 13 1016.1 F 0.0 Fine Mostly cloudy 22 - - - -
31/08:30am 24.6 E 7 11 1016.1 - 0.0 - Mostly clear 10 - - - -
31/08:00am 22.4 N 3 4 1016.0 - 0.0 - Mostly clear 10 - - - -
31/07:30am 20.4 SE 3 5 1016.0 - 0.0 - - 10 - - - -
31/07:00am 17.8 ESE 3 3 1015.7 - 0.0 - - 10 - - - -
31/06:30am 17.6 CALM 0 2 1015.5 - 0.0 - Mostly clear 10 - - - -
31/06:00am 17.8 SSE 1 4 1015.0 R 0.0 Haze Mostly clear 12 - - - -
31/05:30am 17.9 SE 4 5 1015.1 - 0.0 - Partly cloudy 10 - - - -
31/05:00am 17.8 CALM 0 0 1014.8 - 0.0 - - 10 - - - -
31/04:30am 17.9 N 1 3 1014.7 - 0.0 - - 10 - - - -
31/04:00am 17.9 CALM 0 0 1014.6 - 0.0 - - 9 - - - -
31/03:30am 17.9 CALM 0 0 1014.7 - 0.0 - - 10 - - - -
31/03:13am 18.1 CALM 0 0 1014.7 - 0.0 - - 9 - - - -
31/03:00am 18.1 CALM 0 0 1014.5 - 0.0 - - 6 - - - -
31/02:54am 18.0 CALM 0 0 1014.7 - 0.0 - - 6 - - - -
31/02:52am 18.0 CALM 0 0 1014.7 - 0.0 - - 7 - - - -
31/02:30am 18.0 CALM 0 0 1014.8 - 0.0 - - 5 - - - -
31/02:13am 18.0 CALM 0 0 1014.8 - 0.0 - - 6 - - - -
31/02:05am 18.0 CALM 0 2 1014.9 - 0.0 - - 9 - - - -
31/02:00am 18.0 CALM 0 2 1014.9 - 0.0 - - 8 - - - -
31/01:52am 18.0 CALM 0 0 1015.0 - 0.0 - - 6 - - - -
31/01:46am 18.0 CALM 0 0 1015.0 - 0.0 - - 8 - - - -
31/01:30am 18.1 CALM 0 0 1015.1 - 0.0 - - 5 - - - -
31/01:12am 18.1 CALM 0 0 1015.2 - 0.0 - - 6 - - - -
31/01:00am 18.2 CALM 0 0 1015.2 - 0.0 - - 10 - - - -
31/12:30am 18.3 N 2 4 1015.5 - 0.0 - - 9 - - - -
31/12:00am 18.7 N 3 4 1015.3 - 0.0 - - 10 - - - -
 
Date/Time
CST
Temp

°C
Wind Pressure Rain
since 9am
mm
Weather Cloud Vis
km
Sea
Height
m
Swell
Dir
 
Speed
knots
Gust
knots
hPa Trend Height
m
Period
s
Dir
30/11:30pm 18.7 CALM 0 0 1015.7 - 0.0 - - 10 - - - -
30/11:00pm 19.2 CALM 0 0 1016.0 - 0.0 - - 10 - - - -
30/10:30pm 19.4 CALM 0 0 1016.2 - 0.0 - - 10 - - - -
30/10:00pm 19.8 CALM 0 0 1016.3 - 0.0 - - 10 - - - -
30/09:30pm 20.3 SE 3 3 1016.2 - 0.0 - Partly cloudy 10 - - - -
30/09:22pm 20.4 SE 2 3 1016.3 - 0.0 - Partly cloudy 10 - - - -
30/09:00pm 21.0 SE 3 4 1015.9 - 0.0 - - 1 - - - -
30/08:51pm 21.2 SE 3 4 1016.0 - 0.0 - - 6 - - - -
30/08:30pm 21.6 ESE 4 5 1015.8 - 0.0 - - 10 - - - -
30/08:00pm 22.0 ESE 4 5 1015.4 - 0.0 - - 10 - - - -
30/07:30pm 22.9 ESE 4 6 1015.0 - 0.0 - - 10 - - - -
30/07:00pm 23.9 ESE 7 9 1014.7 - 0.0 - Partly cloudy 10 - - - -
30/06:30pm 24.6 ESE 9 12 1014.4 - 0.0 - Partly cloudy 10 - - - -
30/06:00pm 24.9 ESE 9 13 1014.0 - 0.0 - Partly cloudy 10 - - - -
30/05:30pm 25.6 ESE 11 14 1014.2 - 0.0 - Partly cloudy 10 - - - -
30/05:00pm 25.5 ESE 11 15 1014.2 - 0.0 - Partly cloudy 10 - - - -
30/04:30pm 25.7 ESE 12 17 1014.0 - 0.0 - Partly cloudy 10 - - - -
30/04:00pm 27.0 ESE 14 18 1013.9 - 0.0 - Partly cloudy 10 - - - -
30/03:30pm 26.7 E 13 17 1013.8 - 0.0 - Partly cloudy 10 - - - -
30/03:00pm 27.3 ESE 13 17 1013.5 R 0.0 Fine Partly cloudy 22 - - - -
30/02:30pm 27.5 ESE 13 18 1014.1 - 0.0 - Partly cloudy 10 - - - -
30/02:00pm 28.0 ESE 13 18 1014.3 - 0.0 - Partly cloudy 10 - - - -
30/01:30pm 28.1 ESE 13 17 1014.5 - 0.0 - Partly cloudy 10 - - - -
30/01:00pm 28.2 E 11 13 1014.8 - 0.0 - Partly cloudy 10 - - - -
30/12:30pm 27.8 E 14 21 1015.2 - 0.0 - Partly cloudy 10 - - - -
30/12:00pm 26.3 E 16 22 1015.3 F 0.0 Fine Partly cloudy 22 - - - -
30/11:30am 27.4 E 18 20 1015.8 - 0.0 - Partly cloudy 10 - - - -
30/11:00am 26.6 ESE 15 20 1016.2 - 0.0 - Partly cloudy 10 - - - -
30/10:30am 26.3 ESE 15 20 1016.7 - 0.0 - Mostly cloudy 10 - - - -
30/10:00am 27.4 ESE 13 18 1016.9 - 0.0 - Partly cloudy 10 - - - -

Other Formats:

Comma delimited format used in spreadsheet applications
http://www.bom.gov.au/fwo/IDD60701/IDD60701.94150.axf

JavaScript Object Notation format (JSON) in row-major order
http://www.bom.gov.au/fwo/IDD60701/IDD60701.94150.json